Time,TemperatureF,DewpointF,PressureIn,WindDirection,WindDirectionDegrees,WindSpeedMPH,WindSpeedGustMPH,Humidity,HourlyPrecipIn,Conditions,Clouds,dailyrainin,SoftwareType,DateUTC
2013-03-04 00:00:00,19.0,16.0,-100.00,SW,229,17.0,36.0,88,-99.99,,,-99.99,,2013-03-04 07:00:00,
2013-03-04 00:42:00,19.0,16.0,-100.00,SW,229,17.0,36.0,88,-99.99,,,-99.99,,2013-03-04 07:42:00,
2013-03-04 00:52:00,19.0,16.0,-100.00,SW,229,17.0,36.0,88,-99.99,,,-99.99,,2013-03-04 07:52:00,
2013-03-04 01:00:00,18.0,16.0,-100.00,SW,224,14.0,38.0,89,-99.99,,,-99.99,,2013-03-04 08:00:00,
2013-03-04 01:42:00,18.0,16.0,-100.00,SW,224,14.0,38.0,89,-99.99,,,-99.99,,2013-03-04 08:42:00,
2013-03-04 01:52:00,18.0,16.0,-100.00,SW,224,14.0,38.0,89,-99.99,,,-99.99,,2013-03-04 08:52:00,
2013-03-04 02:00:00,18.0,16.0,-100.00,West,270,7.0,35.0,92,-99.99,,,-99.99,,2013-03-04 09:00:00,
2013-03-04 02:42:00,18.0,16.0,-100.00,West,270,7.0,35.0,92,-99.99,,,-99.99,,2013-03-04 09:42:00,
2013-03-04 02:52:00,18.0,16.0,-100.00,West,270,7.0,35.0,92,-99.99,,,-99.99,,2013-03-04 09:52:00,
2013-03-04 03:00:00,17.0,15.0,-100.00,WNW,292,10.0,40.0,92,-99.99,,,-99.99,,2013-03-04 10:00:00,
2013-03-04 03:42:00,17.0,15.0,-100.00,WNW,292,10.0,40.0,92,-99.99,,,-99.99,,2013-03-04 10:42:00,
2013-03-04 03:52:00,17.0,15.0,-100.00,WNW,292,10.0,40.0,92,-99.99,,,-99.99,,2013-03-04 10:52:00,
2013-03-04 04:00:00,17.0,15.0,-100.00,West,269,14.0,46.0,91,-99.99,,,-99.99,,2013-03-04 11:00:00,
2013-03-04 04:42:00,17.0,15.0,-100.00,West,269,14.0,46.0,91,-99.99,,,-99.99,,2013-03-04 11:42:00,
2013-03-04 04:52:00,17.0,15.0,-100.00,West,269,14.0,46.0,91,-99.99,,,-99.99,,2013-03-04 11:52:00,
2013-03-04 05:00:00,17.0,15.0,-100.00,WNW,286,15.0,42.0,93,-99.99,,,-99.99,,2013-03-04 12:00:00,
2013-03-04 05:42:00,17.0,15.0,-100.00,WNW,286,15.0,42.0,93,-99.99,,,-99.99,,2013-03-04 12:42:00,
2013-03-04 05:53:00,17.0,15.0,-100.00,WNW,286,15.0,42.0,93,-99.99,,,-99.99,,2013-03-04 12:53:00,
2013-03-04 06:00:00,17.0,15.0,-100.00,WNW,290,20.0,50.0,94,-99.99,,,-99.99,,2013-03-04 13:00:00,
2013-03-04 06:42:00,17.0,15.0,-100.00,WNW,290,20.0,50.0,94,-99.99,,,-99.99,,2013-03-04 13:42:00,
2013-03-04 06:52:00,17.0,15.0,-100.00,WNW,290,20.0,50.0,94,-99.99,,,-99.99,,2013-03-04 13:52:00,
2013-03-04 07:00:00,17.0,14.0,-100.00,West,278,19.0,50.0,89,-99.99,,,-99.99,,2013-03-04 14:00:00,
2013-03-04 07:42:00,17.0,14.0,-100.00,West,278,19.0,50.0,89,-99.99,,,-99.99,,2013-03-04 14:42:00,
2013-03-04 07:52:00,17.0,14.0,-100.00,West,278,19.0,50.0,89,-99.99,,,-99.99,,2013-03-04 14:52:00,
2013-03-04 08:00:00,16.0,14.0,-100.00,West,275,10.0,26.0,92,-99.99,,,-99.99,,2013-03-04 15:00:00,
2013-03-04 08:42:00,16.0,14.0,-100.00,West,275,10.0,26.0,92,-99.99,,,-99.99,,2013-03-04 15:42:00,
2013-03-04 08:52:00,16.0,14.0,-100.00,West,275,10.0,26.0,92,-99.99,,,-99.99,,2013-03-04 15:52:00,
2013-03-04 09:00:00,16.0,14.0,-100.00,WNW,293,16.0,35.0,89,-99.99,,,-99.99,,2013-03-04 16:00:00,
2013-03-04 09:42:00,16.0,14.0,-100.00,WNW,293,16.0,35.0,89,-99.99,,,-99.99,,2013-03-04 16:42:00,
2013-03-04 09:52:00,16.0,14.0,-100.00,WNW,293,16.0,35.0,89,-99.99,,,-99.99,,2013-03-04 16:52:00,
2013-03-04 10:00:00,16.0,13.0,-100.00,NW,312,25.0,42.0,90,-99.99,,,-99.99,,2013-03-04 17:00:00,
2013-03-04 10:42:00,16.0,13.0,-100.00,NW,312,25.0,42.0,90,-99.99,,,-99.99,,2013-03-04 17:42:00,
2013-03-04 10:52:00,16.0,13.0,-100.00,NW,312,25.0,42.0,90,-99.99,,,-99.99,,2013-03-04 17:52:00,
2013-03-04 11:00:00,15.0,12.0,-100.00,NW,313,27.0,48.0,87,-99.99,,,-99.99,,2013-03-04 18:00:00,
2013-03-04 11:42:00,15.0,12.0,-100.00,NW,313,27.0,48.0,87,-99.99,,,-99.99,,2013-03-04 18:42:00,
2013-03-04 11:52:00,15.0,12.0,-100.00,NW,313,27.0,48.0,87,-99.99,,,-99.99,,2013-03-04 18:52:00,
2013-03-04 12:00:00,14.0,10.0,-100.00,NW,318,24.0,44.0,84,-99.99,,,-99.99,,2013-03-04 19:00:00,
2013-03-04 12:42:00,14.0,10.0,-100.00,NW,318,24.0,44.0,84,-99.99,,,-99.99,,2013-03-04 19:42:00,
2013-03-04 12:52:00,14.0,10.0,-100.00,NW,318,24.0,44.0,84,-99.99,,,-99.99,,2013-03-04 19:52:00,
2013-03-04 13:00:00,15.0,11.0,-100.00,WNW,301,17.0,37.0,85,-99.99,,,-99.99,,2013-03-04 20:00:00,
2013-03-04 13:42:00,15.0,11.0,-100.00,WNW,301,17.0,37.0,85,-99.99,,,-99.99,,2013-03-04 20:42:00,
2013-03-04 13:52:00,15.0,11.0,-100.00,WNW,301,17.0,37.0,85,-99.99,,,-99.99,,2013-03-04 20:52:00,
2013-03-04 14:00:00,15.0,12.0,-100.00,WNW,294,18.0,41.0,86,-99.99,,,-99.99,,2013-03-04 21:00:00,
2013-03-04 14:43:00,15.0,12.0,-100.00,WNW,294,18.0,41.0,86,-99.99,,,-99.99,,2013-03-04 21:43:00,
2013-03-04 14:52:00,15.0,12.0,-100.00,WNW,294,18.0,41.0,86,-99.99,,,-99.99,,2013-03-04 21:52:00,
2013-03-04 15:00:00,15.0,12.0,-100.00,WNW,297,21.0,50.0,87,-99.99,,,-99.99,,2013-03-04 22:00:00,
2013-03-04 15:43:00,15.0,12.0,-100.00,WNW,297,21.0,50.0,87,-99.99,,,-99.99,,2013-03-04 22:43:00,
2013-03-04 15:52:00,15.0,12.0,-100.00,WNW,297,21.0,50.0,87,-99.99,,,-99.99,,2013-03-04 22:52:00,
2013-03-04 16:00:00,14.0,12.0,-100.00,WNW,299,24.0,48.0,89,-99.99,,,-99.99,,2013-03-04 23:00:00,
2013-03-04 16:42:00,14.0,12.0,-100.00,WNW,299,24.0,48.0,89,-99.99,,,-99.99,,2013-03-04 23:42:00,
2013-03-04 16:52:00,14.0,12.0,-100.00,WNW,299,24.0,48.0,89,-99.99,,,-99.99,,2013-03-04 23:52:00,
2013-03-04 17:00:00,13.0,11.0,-100.00,NW,305,29.0,58.0,89,-99.99,,,-99.99,,2013-03-05 00:00:00,
2013-03-04 17:42:00,13.0,11.0,-100.00,NW,305,29.0,58.0,89,-99.99,,,-99.99,,2013-03-05 00:42:00,
2013-03-04 17:52:00,13.0,11.0,-100.00,NW,305,29.0,58.0,89,-99.99,,,-99.99,,2013-03-05 00:52:00,
2013-03-04 18:00:00,12.0,10.0,-100.00,NW,323,30.0,54.0,92,-99.99,,,-99.99,,2013-03-05 01:00:00,
2013-03-04 18:42:00,12.0,10.0,-100.00,NW,323,30.0,54.0,92,-99.99,,,-99.99,,2013-03-05 01:42:00,
2013-03-04 18:52:00,12.0,10.0,-100.00,NW,323,30.0,54.0,92,-99.99,,,-99.99,,2013-03-05 01:52:00,
2013-03-04 19:00:00,10.0,8.0,-100.00,NNW,330,20.0,44.0,90,-99.99,,,-99.99,,2013-03-05 02:00:00,
2013-03-04 19:42:00,10.0,8.0,-100.00,NNW,330,20.0,44.0,90,-99.99,,,-99.99,,2013-03-05 02:42:00,
2013-03-04 19:52:00,10.0,8.0,-100.00,NNW,330,20.0,44.0,90,-99.99,,,-99.99,,2013-03-05 02:52:00,
2013-03-04 20:00:00,9.0,7.0,-100.00,NW,323,21.0,38.0,91,-99.99,,,-99.99,,2013-03-05 03:00:00,
2013-03-04 20:42:00,9.0,7.0,-100.00,NW,323,21.0,38.0,91,-99.99,,,-99.99,,2013-03-05 03:42:00,
2013-03-04 20:52:00,9.0,7.0,-100.00,NW,323,21.0,38.0,91,-99.99,,,-99.99,,2013-03-05 03:52:00,
2013-03-04 21:00:00,8.0,5.0,-100.00,NW,318,25.0,42.0,90,-99.99,,,-99.99,,2013-03-05 04:00:00,
2013-03-04 21:42:00,8.0,5.0,-100.00,NW,318,25.0,42.0,90,-99.99,,,-99.99,,2013-03-05 04:42:00,
2013-03-04 21:52:00,8.0,5.0,-100.00,NW,318,25.0,42.0,90,-99.99,,,-99.99,,2013-03-05 04:52:00,
2013-03-04 22:00:00,7.0,-1.0,-100.00,NW,309,23.0,32.0,69,-99.99,,,-99.99,,2013-03-05 05:00:00,
2013-03-04 22:42:00,7.0,-1.0,-100.00,NW,309,23.0,32.0,69,-99.99,,,-99.99,,2013-03-05 05:42:00,
2013-03-04 22:52:00,7.0,-1.0,-100.00,NW,309,23.0,32.0,69,-99.99,,,-99.99,,2013-03-05 05:52:00,
2013-03-04 23:00:00,8.0,-99.9,-100.00,NNW,329,16.0,29.0,31,-99.99,,,-99.99,,2013-03-05 06:00:00,
2013-03-04 23:42:00,8.0,-16.0,-100.00,NNW,329,16.0,29.0,31,-99.99,,,-99.99,,2013-03-05 06:42:00,
2013-03-04 23:52:00,8.0,-16.0,-100.00,NNW,329,16.0,29.0,31,-99.99,,,-99.99,,2013-03-05 06:52:00,